Historyczne dane pomiarowe

Dodano dane terminowe – wersja testowa.

Dane z okresu 1951-2019

Wersja bazy: 1.34 [2019-03-16, lista zmian], aktualizacja planowana na 2019-04-15

Dane meteo z obszaru Polski uzyskane na podstawie danych udostępnionych przez Instytut Meteorologii i Gospodarki Wodnej – Państwowy Instytut Badawczy.

 

Wybierz Datę:    

       

TemperaturaWilgotnośćWiatrCiśnienieOpadyŚniegCzas trwania zjawisk
 Stacja t tx tn tng RH VA  wxwx mslp ppp RRR   cm mm wxwxwxwxwxwxwx
1983-08-14 15.4 20.0 10.9 9.8-- 4.0 4.0---- 0.0------------
1983-08-13 15.2 18.2 12.3 11.1-- 3.0 6.0---- 2.6------------
1983-08-12 17.6 22.5 13.3 11.5-- 5.0 3.7---- 0.0------------
1983-08-11 20.6 27.2 13.5 10.7-- 0.0 1.3---- 0.0------------
1983-08-10 20.6 27.2 14.0 11.6-- 2.0 2.0---- 0.0------------
1983-08-09 19.4 26.5 13.0 12.0-- 2.0 2.0---- 0.0------------
1983-08-08 19.2 25.3 14.2 13.2-- 5.3 2.7---- 0.0------------
1983-08-07 18.7 24.3 11.6 9.1-- 3.7 2.7---- 0.0------------
1983-08-06 18.6 22.6 12.2 8.2-- 4.7 2.3---- 0.0------------
1983-08-05 14.4 16.8 12.3 12.6-- 7.0 2.0---- 1.0------------
1983-08-04 12.6 13.5 11.1 12.3-- 8.0 8.7---- 20.0------------
1983-08-03 14.8 22.0 12.6 13.2-- 8.0 7.0---- 27.0------------
1983-08-02 21.1 31.5 15.1 16.2-- 6.7 3.0---- 3.6------------
1983-08-01 25.0 34.7 15.0 10.3-- 3.0 4.0---- 6.0------------
1983-07-31 18.8 27.1 8.8 6.6-- 0.0 1.0---- 0.0------------
1983-07-30 17.5 20.2 13.6 14.1-- 4.3 6.7---- 0.0------------
1983-07-29 17.0 21.3 13.6 12.1-- 7.7 5.3---- 3.4------------
1983-07-28 20.4 26.6 17.0 15.5-- 5.7 3.3---- 0.0------------
1983-07-27 24.4 33.8 11.8 11.5-- 0.7 4.0---- 0.0------------
1983-07-26 20.4 29.2 8.9 5.3-- 0.3 1.0---- 0.0------------
1983-07-25 19.4 25.8 9.6 6.6-- 0.0 2.7---- 0.0------------
1983-07-24 18.6 23.7 11.9 12.0-- 3.3 2.0---- 0.0------------
1983-07-23 19.5 25.5 13.1 12.6-- 0.3 3.0---- 0.0------------
1983-07-22 15.5 18.1 12.9 11.5-- 6.3 4.3---- 0.0------------
1983-07-21 14.6 19.5 9.1 7.8-- 5.7 6.3---- 0.0------------
1983-07-20 13.6 19.8 10.6 10.6-- 6.3 6.0---- 0.0------------
1983-07-19 20.4 27.2 18.1 17.3-- 7.3 2.0---- 0.6------------
1983-07-18 24.4 30.4 14.9 13.7-- 5.0 3.3---- 7.3------------
1983-07-17 19.2 25.7 11.0 8.5-- 0.3 1.3---- 0.0------------
1983-07-16 20.6 25.8 16.7 15.0-- 5.3 6.7---- 0.1------------
1983-07-15 20.2 26.4 14.0 11.9-- 0.0 2.7---- 7.9------------
1983-07-14 20.6 26.3 15.6 14.1-- 5.3 2.7---- 0.0------------
1983-07-13 20.6 26.4 15.0 14.2-- 7.3 4.3---- 0.0------------
1983-07-12 23.4 29.3 17.9 13.0-- 0.0 4.0---- 0.0------------
1983-07-11 22.8 30.3 14.3 10.6-- 3.3 2.0---- 0.0------------
1983-07-10 24.0 31.6 14.4 13.9-- 3.7 3.3---- 0.0------------
1983-07-09 21.1 29.8 11.1 6.6-- 1.3 3.7---- 0.0------------
1983-07-08 21.0 27.3 11.6 12.4-- 0.0 4.0---- 0.0------------
1983-07-07 24.2 30.8 17.3 15.4-- 0.0 5.0---- 0.0------------
1983-07-06 23.3 30.5 9.3 11.5-- 0.0 2.3---- 0.0------------
1983-07-05 18.6 24.8 9.0 7.1-- 0.7 2.3---- 0.0------------
1983-07-04 17.9 21.8 10.5 7.8-- 5.0 3.7---- 0.0------------
1983-07-03 18.4 23.3 12.7 10.0-- 5.3 1.7---- 0.0------------
1983-07-02 16.3 22.1 10.6 7.8-- 1.3 2.3---- 0.0------------
1983-07-01 18.0 21.7 13.3 12.2-- 7.3 4.7---- 0.0------------
1983-06-30 18.5 24.3 13.3 12.2-- 5.3 3.7---- 0.0------------
1983-06-29 13.6 18.7 7.0 6.0-- 6.0 5.3---- 0.0------------
1983-06-28 13.6 17.2 10.7 9.9-- 3.3 5.3---- 0.0------------
1983-06-27 17.2 22.8 15.0 9.7-- 7.3 3.3---- 0.9------------
1983-06-26 18.2 23.5 10.5 8.3-- 1.7 2.7---- 0.0------------
1983-06-25 17.8 25.9 10.1 9.6-- 5.3 3.0---- 0.1------------
1983-06-24 20.7 27.8 8.0 5.5-- 0.0 1.3---- 0.0------------
1983-06-23 18.3 24.6 8.0 5.1-- 0.0 2.0---- 0.0------------
1983-06-22 15.9 23.0 7.1 5.6-- 0.0 3.0---- 0.0------------
1983-06-21 19.8 26.7 7.6 7.3-- 0.7 2.7---- 0.0------------
1983-06-20 17.6 25.3 7.5 3.3-- 0.0 3.7---- 0.0------------
1983-06-19 16.1 23.3 7.6 4.9-- 0.3 5.0---- 0.0------------
1983-06-18 14.4 18.4 10.2 8.9-- 8.0 4.3---- 0.0------------
1983-06-17 12.5 16.4 8.0 7.3-- 4.7 2.0---- 0.1------------
1983-06-16 11.8 15.5 7.8 6.8-- 8.0 4.7---- 0.0------------
336.5 ms

 

Źródłem pochodzenia danych jest Instytut Meteorologii i Gospodarki Wodnej – Państwowy Instytut Badawczy. Dane Instytutu Meteorologii i Gospodarki Wodnej – Państwowego Instytutu Badawczego zostały przetworzone.

Dane źródłowe można odnaleźć na stronie https://dane.imgw.pl